Date,TemperatureHighF,TemperatureAvgF,TemperatureLowF,DewpointHighF,DewpointAvgF,DewpointLowF,HumidityHigh,HumidityAvg,HumidityLow,PressureMaxIn,PressureMinIn,WindSpeedMaxMPH,WindSpeedAvgMPH,GustSpeedMaxMPH,PrecipitationSumIn
2013-1-1,39.1,36.7,32.0,37.5,35.7,32.0,99,96,89,30.20,30.03,6,0,6,0.00
2013-1-2,44.1,36.9,32.9,37.9,34.0,31.8,96,89,69,30.03,29.88,7,0,7,0.00
2013-1-3,41.9,35.8,31.8,37.9,33.6,30.8,98,92,75,29.88,29.74,10,0,10,0.09
2013-1-4,42.9,40.7,38.1,42.6,40.4,37.6,99,99,98,29.98,29.78,7,0,7,0.01
2013-1-5,44.4,41.7,38.6,43.7,41.1,38.1,99,98,95,29.86,29.73,13,1,13,0.04
2013-1-6,43.4,40.8,38.7,43.2,40.5,38.2,100,99,98,29.83,29.57,8,0,8,0.13
2013-1-7,47.4,44.0,41.1,47.4,43.1,40.8,100,97,91,29.81,29.45,16,4,29,0.53
2013-1-8,47.5,42.6,40.6,47.5,42.0,40.0,100,98,91,29.82,29.32,21,1,21,1.34
2013-1-9,44.6,39.9,34.8,44.2,39.0,34.0,99,97,92,29.61,29.35,22,4,22,0.36
2013-1-10,40.7,35.1,30.2,39.5,34.5,29.4,99,97,92,29.84,29.61,5,0,5,0.02
2013-1-11,39.1,32.5,28.8,32.8,29.2,24.6,98,88,58,30.01,29.84,5,0,5,0.01
2013-1-12,38.2,30.9,27.9,32.1,28.3,26.5,96,90,70,30.14,30.01,5,0,5,0.01
2013-1-13,36.9,32.1,28.3,33.4,30.5,27.3,97,94,81,30.17,30.12,4,0,4,0.00
2013-1-14,38.6,36.0,33.7,37.3,35.0,32.7,98,96,94,30.26,30.13,4,0,4,0.01
2013-1-15,41.3,38.1,35.7,39.4,36.8,35.3,99,95,87,30.39,30.26,4,0,4,0.00
2013-1-16,40.4,37.5,35.2,37.1,35.6,32.9,97,93,85,30.37,30.22,7,0,7,0.00
2013-1-17,41.1,35.2,31.7,38.5,34.2,30.9,99,96,90,30.23,29.97,7,0,7,0.00
2013-1-18,42.1,37.1,34.6,39.2,36.1,34.3,99,96,86,30.03,29.95,7,0,7,0.00
2013-1-19,43.5,37.6,32.9,39.3,35.7,32.1,98,93,83,30.07,30.02,5,1,9,0.00
2013-1-20,45.9,35.9,31.0,40.4,34.3,30.5,99,94,79,30.08,29.96,7,0,7,0.01
2013-1-21,40.4,34.6,30.1,38.6,34.0,29.6,99,98,93,29.96,29.81,8,0,8,0.01
2013-1-22,39.7,36.8,34.9,37.6,35.8,34.6,99,96,90,29.83,29.60,6,0,6,0.00
2013-1-23,43.1,40.0,37.4,42.8,39.1,36.2,99,96,91,29.78,29.50,17,2,17,0.20
2013-1-24,42.0,40.0,37.4,41.0,39.4,36.9,99,98,94,29.86,29.66,16,0,16,0.09
2013-1-25,48.9,41.6,37.5,46.4,40.8,37.2,100,97,83,29.73,29.56,5,0,5,0.01
2013-1-26,44.7,41.0,39.2,43.2,40.3,38.9,99,97,90,29.69,29.51,15,2,15,0.17
2013-1-27,41.4,39.6,38.7,40.8,39.3,38.4,99,99,98,29.70,29.65,11,3,11,0.10
2013-1-28,42.9,42.0,32.0,42.6,41.7,32.0,99,98,98,29.77,29.69,21,5,21,0.12
2013-1-29,45.4,44.5,42.8,45.1,44.2,42.5,99,99,98,29.97,29.76,24,7,24,0.08
2013-1-30,49.9,46.5,44.9,48.4,46.0,44.6,100,98,93,30.04,29.96,15,4,15,0.06
2013-1-31,49.4,45.7,32.0,49.0,45.3,32.0,100,98,97,30.04,29.95,11,1,12,0.05
2013-2-1,47.2,42.0,38.6,45.1,41.1,38.1,100,97,89,30.11,30.02,5,0,5,0.00
2013-2-2,43.2,40.1,37.5,41.6,39.4,37.2,99,98,93,30.08,29.93,7,0,7,0.01
2013-2-3,44.7,41.9,39.9,43.4,41.4,39.4,99,98,95,29.98,29.85,6,0,6,0.07
2013-2-4,48.6,43.7,32.0,46.0,42.8,32.0,100,96,87,29.86,29.52,5,0,5,0.01
2013-2-5,47.6,43.1,40.6,46.7,42.6,40.2,100,98,94,29.56,29.44,20,1,20,0.30
2013-2-6,46.4,43.1,40.5,45.6,42.2,40.0,99,97,93,29.66,29.37,16,1,16,0.01
2013-2-7,48.7,41.3,36.4,42.9,38.1,35.3,98,89,69,29.89,29.36,24,2,24,0.01
2013-2-8,46.7,38.9,34.0,41.3,36.7,33.5,99,92,71,29.99,29.89,10,1,10,0.00
2013-2-9,44.9,40.8,36.9,41.7,39.3,35.8,99,94,87,30.04,29.94,5,0,5,0.00
2013-2-10,44.7,42.0,32.0,41.3,39.9,32.0,97,92,84,30.07,30.01,6,0,6,0.01
2013-2-11,44.6,42.1,40.0,44.3,41.7,39.3,99,99,96,30.02,29.98,6,0,6,0.06
2013-2-12,47.2,44.4,41.6,45.8,43.6,41.1,99,97,89,30.06,29.93,30,3,30,0.05
2013-2-13,47.6,43.9,42.3,44.2,41.5,39.2,98,91,83,30.16,29.96,24,4,24,0.02
2013-2-14,44.7,43.1,41.3,44.2,42.6,40.0,99,98,92,30.25,30.15,4,0,5,0.13
2013-2-15,47.1,43.7,32.0,46.1,42.9,32.0,100,97,90,30.25,29.86,5,0,5,0.00
2013-2-16,47.3,43.1,39.4,44.3,41.8,38.9,99,95,84,29.87,29.80,28,6,28,0.10
2013-2-17,48.2,41.6,37.4,40.5,37.9,35.0,98,87,64,29.91,29.78,19,2,19,0.01
2013-2-18,43.7,40.1,32.0,41.3,38.5,32.0,99,93,86,29.78,29.40,8,0,8,0.01
2013-2-19,49.1,41.5,36.6,40.9,38.1,35.4,97,88,67,29.68,29.40,8,0,8,0.00
2013-2-20,43.4,39.9,36.4,41.3,38.5,35.6,99,95,86,29.70,29.65,4,0,4,0.01
2013-2-21,43.3,40.9,38.4,42.4,39.6,37.2,98,95,87,29.72,29.66,19,3,19,0.25
2013-2-22,47.4,39.9,36.8,45.5,39.1,35.7,99,97,88,29.70,29.29,26,4,26,0.70
2013-2-23,46.4,42.1,37.6,41.2,38.7,36.8,98,88,74,30.02,29.54,25,6,25,0.07
2013-2-24,50.2,42.2,39.1,45.4,40.2,37.8,98,93,82,30.03,29.51,10,1,13,0.04
2013-2-25,47.4,42.6,39.6,41.5,38.9,35.3,98,87,67,29.95,29.49,34,8,34,0.36
2013-2-26,44.7,41.1,37.1,40.2,38.0,35.5,97,89,76,29.99,29.79,13,1,13,0.04
2013-2-27,47.4,41.1,37.4,42.6,39.4,36.6,99,94,80,29.98,29.85,15,0,15,0.05
2013-2-28,46.3,42.7,39.4,46.0,42.0,37.8,99,97,94,29.94,29.83,7,0,7,0.40
2013-3-1,54.4,49.8,32.0,51.1,48.2,32.0,100,94,85,29.94,29.87,22,3,22,0.26
2013-3-2,50.4,44.8,39.1,49.4,43.9,37.4,99,97,92,29.91,29.73,24,4,24,0.11
2013-3-3,47.8,40.8,35.7,40.5,36.8,33.7,96,86,62,29.99,29.87,18,3,18,0.01
2013-3-4,50.1,40.9,34.3,40.0,35.2,31.7,97,81,54,29.99,29.63,9,1,9,0.00
2013-3-5,46.2,42.4,39.6,40.5,36.8,32.5,95,81,67,29.63,29.43,7,1,7,0.02
2013-3-6,43.2,41.4,39.9,41.7,39.8,38.2,98,94,86,29.56,29.31,8,0,8,0.28
2013-3-7,48.6,41.7,37.0,44.3,40.6,36.2,99,96,83,29.79,29.56,7,0,7,0.04
2013-3-8,49.7,41.8,36.1,43.8,39.2,35.6,99,91,72,29.93,29.78,8,0,8,0.00
2013-3-9,51.7,42.5,34.8,44.2,39.1,34.0,99,88,67,30.17,29.93,11,1,11,0.00
2013-3-10,45.0,42.3,40.0,43.0,40.6,38.6,98,94,89,30.17,30.10,11,1,11,0.05
2013-3-11,48.6,42.8,38.9,43.7,41.1,38.4,99,94,78,30.12,29.78,8,0,8,0.13
2013-3-12,50.1,46.6,42.7,49.7,46.3,42.2,99,99,98,29.78,29.64,15,1,15,1.09
2013-3-13,51.0,49.2,47.3,50.7,48.9,47.0,99,99,99,29.82,29.71,16,1,16,0.14
2013-3-14,50.8,47.5,45.9,50.8,47.3,45.6,100,99,99,29.79,29.65,8,0,8,0.13
2013-3-15,52.4,46.6,43.1,51.5,46.2,42.8,100,98,91,29.88,29.79,13,1,13,0.16
2013-3-16,46.1,42.2,32.0,45.8,41.1,32.0,99,95,82,29.79,29.56,26,5,26,0.24
2013-3-17,45.2,39.6,36.7,39.9,36.3,33.4,97,88,70,29.86,29.65,24,6,24,0.13
2013-3-18,48.5,41.2,33.4,38.9,35.1,29.8,97,80,55,29.92,29.75,23,5,23,0.17
2013-3-19,46.1,39.4,32.0,42.0,35.2,29.6,97,85,65,29.90,29.18,9,1,9,0.11
2013-3-20,47.4,43.9,32.0,46.0,42.6,32.0,99,95,84,29.30,28.96,35,4,35,0.28
2013-3-22,42.3,34.2,32.0,35.5,31.7,30.3,94,89,79,30.07,0.00,1,0,1,0.28
2013-3-23,46.2,38.3,32.4,38.5,33.8,30.0,96,85,65,30.08,29.99,11,1,11,0.00
2013-3-24,49.2,41.4,32.0,37.1,34.4,30.0,92,76,55,30.00,29.82,9,1,9,0.00
2013-3-25,56.0,45.2,35.3,38.7,34.5,28.5,92,69,37,29.83,29.65,9,1,9,0.00
2013-3-26,54.0,47.2,41.2,43.7,39.5,35.6,86,75,59,29.71,29.66,7,0,7,0.00
2013-3-27,56.3,47.2,32.0,47.5,42.2,32.0,93,83,68,29.69,29.64,7,0,7,0.00
2013-3-28,57.9,47.1,32.0,47.1,42.9,32.0,94,85,65,29.83,29.69,6,0,6,0.00
2013-3-29,57.9,47.0,37.9,48.7,43.0,36.6,97,87,69,29.96,29.83,8,1,8,0.00
2013-3-30,60.2,48.6,40.5,49.3,44.1,39.7,98,85,66,29.97,29.79,9,1,9,0.00
2013-3-31,62.2,51.3,40.6,48.0,43.4,38.5,93,76,54,29.79,29.62,8,1,8,0.00
2013-4-1,58.7,50.0,43.4,50.1,44.5,39.8,93,82,72,29.80,29.65,18,4,18,0.00
2013-4-2,53.4,47.5,42.9,44.8,42.7,40.1,91,83,71,29.88,29.80,11,2,12,0.00
2013-4-3,55.1,48.8,43.8,47.7,44.4,42.2,95,85,67,29.89,29.66,11,1,11,0.00
2013-4-4,50.9,48.3,45.8,48.5,46.2,43.5,98,92,82,29.66,29.26,6,0,6,0.17
2013-4-5,53.0,48.4,46.0,50.6,47.3,45.2,98,96,88,29.51,29.32,19,2,19,0.23
2013-4-6,55.7,46.7,41.9,46.1,43.3,39.8,98,89,59,29.59,29.32,21,3,21,0.17
2013-4-7,44.4,42.6,32.0,43.5,41.7,32.0,98,96,95,29.57,0.00,16,1,16,0.39
2013-4-8,55.2,46.9,41.4,46.1,42.8,39.6,98,86,68,29.94,29.57,14,2,14,0.01
2013-4-9,47.4,44.5,40.8,44.6,42.0,38.7,94,91,88,30.02,29.80,6,0,6,0.01
2013-4-10,48.2,45.4,43.8,47.7,43.3,41.5,98,93,85,29.93,29.56,30,6,30,0.50
2013-4-11,53.2,44.5,36.9,44.1,39.0,33.4,96,82,55,30.00,29.87,19,4,19,0.10
2013-4-12,41.8,39.1,36.0,39.5,37.0,33.7,96,92,85,29.87,29.35,24,1,27,0.36
2013-4-13,50.1,40.6,35.2,44.0,38.5,33.7,97,93,73,29.68,29.44,21,4,27,0.53
2013-4-14,51.1,42.3,36.2,44.0,38.3,35.4,98,87,63,29.69,29.63,8,1,10,0.02
2013-4-15,53.2,42.6,36.8,46.2,40.1,35.5,97,91,69,29.87,29.63,12,1,12,0.18
2013-4-16,57.1,46.6,37.3,44.3,38.3,29.1,97,76,37,30.08,29.87,9,1,9,0.00
2013-4-17,56.4,47.1,41.8,44.4,39.6,36.1,91,76,52,30.12,30.07,20,4,20,0.00
2013-4-18,46.9,44.0,40.3,45.9,42.8,39.0,98,96,91,30.12,29.86,14,1,14,0.16
2013-4-19,54.4,47.7,45.6,52.0,46.6,44.3,99,96,82,29.87,29.74,24,4,24,0.18
2013-4-20,52.9,46.5,43.2,46.0,43.5,40.7,98,90,75,29.96,29.87,29,8,29,0.00
2013-4-21,52.9,43.1,37.6,44.5,40.7,36.7,97,92,72,30.09,29.91,20,3,20,0.37
2013-4-22,57.7,45.7,35.6,45.1,36.2,25.2,99,74,32,30.25,30.09,9,1,9,0.01
2013-4-23,58.6,48.5,38.8,45.4,39.0,32.8,86,70,43,30.13,29.97,9,1,9,0.00
2013-4-24,62.7,52.5,32.0,46.6,39.8,32.0,86,64,39,30.02,29.75,15,2,15,0.00
2013-4-25,62.2,53.5,44.0,49.7,42.2,34.6,88,66,52,29.83,29.72,17,2,17,0.00
2013-4-26,65.7,53.4,42.9,48.3,42.0,27.4,95,69,30,29.92,29.82,18,4,18,0.00
2013-4-27,53.9,50.1,46.3,49.2,45.4,41.4,97,85,64,29.89,29.80,18,3,18,0.20
2013-4-28,54.9,47.4,43.4,45.1,42.5,39.1,97,84,62,29.89,29.59,23,5,23,0.33
2013-4-29,50.6,44.9,40.0,42.6,38.8,36.3,96,80,62,29.85,29.61,30,8,30,0.09
2013-4-30,53.2,44.6,35.5,41.4,35.3,28.7,93,71,42,30.13,29.85,12,1,15,0.00
2013-5-1,57.5,47.2,36.3,43.8,36.3,28.7,90,68,35,30.29,30.13,10,1,10,0.00
2013-5-2,60.7,51.7,42.6,45.4,39.5,34.8,84,64,45,30.25,30.09,9,1,9,0.00
2013-5-3,70.2,56.4,45.5,54.6,46.2,36.6,86,70,45,30.11,29.94,8,1,8,0.00
2013-5-4,75.3,61.0,48.2,53.2,45.7,35.7,89,61,27,29.95,29.70,13,1,13,0.00
2013-5-5,79.8,65.2,51.7,54.8,47.8,38.3,79,55,31,29.70,29.47,11,1,11,0.00
2013-5-6,76.8,65.1,55.8,55.1,48.5,43.4,73,56,35,29.55,29.46,16,2,16,0.00
2013-5-7,68.2,56.8,45.8,54.2,48.5,42.8,93,75,56,29.66,29.50,18,4,18,0.00
2013-5-8,66.3,54.7,48.1,53.6,48.2,44.1,93,80,56,29.82,29.66,21,4,21,0.00
2013-5-9,65.4,52.7,32.0,53.8,47.1,32.0,95,82,62,29.91,29.82,12,3,12,0.00
2013-5-10,67.0,55.9,44.9,55.0,48.3,40.7,97,77,53,29.90,29.81,11,1,11,0.00
2013-5-11,64.7,58.4,53.9,58.1,48.3,39.6,95,70,52,29.85,29.69,13,1,13,0.10
2013-5-12,61.9,57.2,52.8,59.1,55.5,50.8,98,94,82,29.75,29.67,14,2,14,0.23
2013-5-13,58.1,51.4,46.0,52.5,48.5,43.0,96,90,79,29.86,29.60,25,3,25,0.35
2013-5-14,57.0,50.4,45.4,48.9,45.5,43.2,96,84,71,29.91,29.81,13,1,13,0.02
2013-5-15,58.6,50.6,32.0,49.7,46.7,32.0,96,87,69,29.81,29.69,8,1,8,0.04
2013-5-16,62.9,54.1,48.9,53.3,50.2,47.9,98,87,70,29.70,29.59,10,1,10,0.00
2013-5-17,57.7,52.9,49.5,52.1,49.4,46.6,94,88,78,29.71,29.61,13,2,13,0.05
2013-5-18,60.0,52.3,48.2,51.2,47.8,45.9,94,85,70,29.97,29.71,11,1,11,0.01
2013-5-19,63.2,53.6,47.7,51.6,47.1,42.0,94,79,58,30.09,29.97,15,3,15,0.00
2013-5-20,62.3,50.7,44.5,52.2,45.5,42.4,95,83,62,30.04,29.60,18,3,18,0.18
2013-5-21,56.2,48.6,43.7,47.5,44.2,42.6,96,86,66,29.60,29.47,12,2,12,0.13
2013-5-22,58.7,50.3,43.8,47.1,44.4,41.7,96,81,57,29.63,29.52,12,1,12,0.23
2013-5-23,58.2,49.4,44.3,48.4,45.2,42.5,98,86,66,29.66,29.59,13,1,13,0.05
2013-5-24,60.4,51.0,42.1,50.9,45.3,40.6,96,82,65,29.72,29.64,16,2,16,0.00
2013-5-25,58.2,50.9,32.0,50.1,46.5,32.0,96,85,68,29.72,29.67,12,2,12,0.10
2013-5-26,55.2,51.4,47.7,51.8,49.4,46.1,98,93,83,29.68,29.62,4,0,6,0.13
2013-5-27,56.6,52.0,49.0,55.5,51.2,47.9,98,97,93,29.62,29.35,10,0,10,0.11
2013-5-28,56.2,52.0,49.2,52.4,49.1,46.3,97,90,82,29.55,29.42,11,1,11,0.03
2013-5-29,55.6,49.9,47.7,50.6,47.4,45.5,98,91,76,29.64,29.38,21,3,21,0.12
2013-5-30,56.2,50.3,47.0,49.7,46.8,44.7,95,88,77,29.92,29.64,15,2,15,0.03
2013-5-31,63.4,53.8,46.2,50.7,46.7,43.8,94,78,55,30.03,29.92,11,1,11,0.00
2013-6-1,64.5,55.8,48.2,52.6,48.9,44.7,94,78,61,29.94,29.77,8,1,8,0.01
2013-6-2,66.3,57.3,49.2,53.8,49.7,46.0,95,77,57,29.78,29.72,14,2,14,0.00
2013-6-3,67.0,55.8,46.9,54.5,49.1,44.0,93,79,62,29.81,29.75,10,1,10,0.00
2013-6-5,63.9,60.3,32.0,57.9,54.8,32.0,84,76,77,29.80,0.00,14,4,14,0.00
2013-6-6,71.3,63.0,32.0,57.3,51.1,32.0,81,65,34,29.75,0.00,21,5,21,0.00
2013-6-7,67.0,56.5,49.7,57.0,49.6,44.6,91,78,67,29.83,29.69,29,7,29,0.00
2013-6-8,62.2,53.2,48.8,51.0,48.1,46.8,93,83,64,29.87,29.81,22,6,27,0.00
2013-6-9,62.9,53.8,48.5,50.7,46.9,43.6,93,79,56,29.82,29.74,20,6,23,0.00
2013-6-10,66.1,55.3,46.3,52.7,47.9,44.4,94,77,56,29.75,29.58,24,4,24,0.00
2013-6-11,62.6,54.7,48.0,51.1,47.5,45.9,93,77,61,29.78,29.61,18,5,18,0.01
2013-6-12,51.5,49.4,32.0,49.5,47.0,32.0,95,90,84,29.83,0.00,6,0,8,0.02
2013-6-13,65.8,55.1,48.7,52.5,48.4,46.1,93,79,57,29.90,29.82,22,4,22,0.00
2013-6-14,60.9,54.4,48.3,51.7,48.6,46.0,92,81,69,29.90,29.76,23,4,23,0.00
2013-6-15,66.8,61.5,32.0,55.3,52.1,32.0,93,70,60,29.77,0.00,8,1,8,0.00
2013-6-16,68.5,59.1,52.7,56.8,51.6,32.0,91,76,62,29.76,29.67,20,5,20,0.00
2013-6-17,71.0,58.6,48.6,55.9,51.5,46.3,94,78,57,29.76,29.60,16,3,16,0.08
2013-6-18,66.9,57.6,50.3,55.7,51.5,47.9,98,81,58,29.65,29.60,19,2,19,0.01
2013-6-19,67.7,58.2,51.4,53.1,49.6,47.6,88,74,56,29.69,29.58,21,5,21,0.00
2013-6-20,55.0,51.6,50.4,50.5,49.4,48.3,98,92,83,29.78,29.62,30,8,30,0.31
2013-6-21,66.2,57.0,51.3,55.6,52.0,48.4,98,84,67,29.85,29.78,15,4,15,0.01
2013-6-22,69.7,59.6,50.1,55.4,51.9,48.1,94,77,57,29.82,29.56,9,1,9,0.00
2013-6-23,62.9,59.0,55.5,58.8,55.4,50.8,97,88,79,29.56,29.29,8,0,8,0.07
2013-6-24,63.1,58.1,54.7,58.0,54.9,51.9,98,89,72,29.37,29.23,16,2,16,0.16
2013-6-25,64.9,57.5,53.3,58.2,54.3,51.5,98,89,73,29.49,29.32,13,0,13,0.03
2013-6-26,55.2,54.1,53.2,54.3,52.9,51.6,97,96,94,29.54,29.48,3,0,3,0.04
2013-6-27,65.5,61.2,32.0,62.0,59.1,32.0,98,92,83,29.90,0.00,10,1,10,0.09
2013-6-28,72.0,63.4,56.6,62.4,59.3,55.8,99,87,71,29.90,29.76,9,1,9,0.00
2013-6-29,79.8,68.8,59.3,63.0,59.6,57.1,96,74,50,29.79,29.68,16,2,16,0.00
2013-6-30,83.3,70.4,32.0,66.8,60.6,32.0,93,72,55,29.69,29.57,10,1,10,0.00
2013-7-1,78.3,65.3,55.2,63.7,57.9,53.1,94,78,51,29.71,29.60,23,5,23,0.00
2013-7-2,68.6,59.5,53.2,58.2,53.4,49.7,96,81,57,29.80,29.71,27,6,27,0.00
2013-7-3,70.8,58.9,52.7,57.3,51.9,47.8,92,79,48,29.85,29.74,28,6,28,0.00
2013-7-4,70.5,59.9,54.1,55.6,52.3,50.4,90,77,53,29.81,29.73,23,6,23,0.00
2013-7-5,69.7,60.8,32.0,57.4,53.4,32.0,93,77,61,29.75,29.64,14,2,14,0.00
2013-7-6,78.0,63.3,51.3,58.4,53.1,47.9,91,71,47,29.68,29.56,15,2,16,0.00
2013-7-7,73.8,63.8,55.5,59.9,54.9,50.7,86,73,57,29.63,29.57,16,2,16,0.00
2013-7-8,73.3,62.6,53.9,59.1,55.0,50.8,90,77,60,29.80,29.63,14,2,14,0.00
2013-7-9,74.6,61.7,52.0,60.2,53.2,44.7,93,76,38,29.83,29.70,21,4,23,0.00
2013-7-10,63.4,55.4,51.1,53.4,50.4,48.2,96,84,64,29.75,29.67,32,8,32,0.00
2013-7-11,66.4,56.8,32.0,51.3,48.9,32.0,93,76,52,29.79,29.69,27,6,27,0.00
2013-7-12,69.1,58.1,49.7,54.3,49.5,44.7,93,74,54,29.79,29.73,18,3,18,0.00
2013-7-13,71.5,59.9,49.5,55.7,50.9,47.1,92,74,53,29.90,29.80,14,2,14,0.00
2013-7-14,76.0,61.4,51.5,55.4,47.8,38.1,90,65,27,29.82,29.70,20,2,20,0.00
2013-7-15,80.3,65.4,51.5,54.5,48.9,44.2,84,58,31,29.77,29.61,14,1,14,0.00
2013-7-16,81.2,70.0,59.7,57.5,51.2,46.4,69,52,34,29.62,29.50,10,0,10,0.00
2013-7-17,72.0,65.5,58.1,58.7,55.0,50.7,81,69,49,29.86,29.55,21,6,26,0.00
2013-7-18,73.0,60.9,32.0,59.4,53.9,32.0,93,78,62,29.92,29.82,19,4,19,0.00
2013-7-19,72.0,59.7,53.0,59.7,54.6,50.7,98,84,65,29.86,29.74,22,5,22,0.00
2013-7-20,71.1,59.5,32.0,59.0,53.9,32.0,98,82,65,29.76,0.00,22,6,22,0.00
2013-7-21,72.8,59.4,51.7,60.0,54.2,50.3,97,84,62,29.66,29.59,18,3,18,0.00
2013-7-22,73.7,60.5,32.0,59.3,54.6,32.0,96,82,60,29.75,29.63,17,2,17,0.00
2013-7-23,78.0,61.8,51.3,59.8,54.0,50.0,97,78,47,29.77,29.68,15,2,15,0.00
2013-7-24,76.6,61.2,32.0,58.2,52.6,32.0,94,75,47,29.75,29.69,19,4,19,0.00
2013-7-25,79.2,62.9,32.0,59.0,52.5,32.0,95,72,31,29.80,29.72,19,3,19,0.00
2013-7-26,74.2,62.1,52.8,57.7,51.6,46.2,88,70,39,29.84,29.77,24,4,26,0.00
2013-7-27,71.8,60.4,49.5,54.6,51.3,46.5,91,73,54,29.83,29.68,10,2,12,0.00
2013-7-28,71.8,60.9,49.8,57.7,52.5,45.8,88,74,60,29.69,29.62,9,1,9,0.00
2013-7-29,72.7,64.2,32.0,57.6,54.3,32.0,82,70,58,29.69,29.64,14,4,14,0.00
2013-7-30,72.7,60.0,51.8,58.9,53.5,49.8,95,80,59,29.81,29.68,14,4,14,0.00
2013-7-31,73.5,58.5,51.0,58.7,52.8,49.1,96,82,60,29.80,29.68,13,3,13,0.00
2013-8-1,70.2,59.1,51.1,57.9,53.0,49.2,95,81,64,29.72,29.67,20,4,20,0.00
2013-8-2,59.4,56.1,54.0,57.1,53.6,51.6,96,91,84,29.82,29.70,20,3,20,0.10
2013-8-3,68.5,59.6,54.7,59.5,54.9,52.8,94,85,73,29.83,29.76,9,1,9,0.00
2013-8-4,76.8,63.5,54.0,62.6,56.7,52.2,96,80,61,29.76,29.65,13,2,13,0.01
2013-8-5,65.1,57.2,53.6,57.2,52.9,51.1,93,86,76,29.71,29.66,6,0,8,0.00
2013-8-17,68.6,62.7,32.0,58.8,54.6,32.0,78,72,70,29.76,0.00,13,2,13,0.08
2013-8-18,73.8,62.4,53.2,59.1,53.9,50.3,94,75,48,29.82,29.75,21,2,21,0.00
2013-8-19,72.3,60.6,52.2,60.2,54.1,50.4,95,80,55,29.82,29.75,22,4,22,0.00
2013-8-20,71.2,61.2,52.2,56.7,52.5,49.8,94,75,49,29.87,29.79,18,2,18,0.00
2013-8-21,78.1,64.9,53.2,55.5,51.2,48.2,84,63,39,29.80,29.66,10,1,10,0.00
2013-8-22,80.8,67.8,54.9,55.9,52.3,48.8,90,60,38,29.66,29.49,17,2,17,0.00
2013-8-23,73.8,62.0,54.4,58.5,55.9,52.0,96,82,57,29.58,29.50,26,5,26,0.01
2013-8-24,71.8,61.1,55.1,58.2,54.2,50.7,91,79,57,29.61,29.56,15,2,15,0.00
2013-8-25,72.4,61.2,51.7,54.0,50.5,46.7,86,69,46,29.64,29.55,9,1,9,0.00
2013-8-26,70.8,60.1,32.0,54.9,50.7,32.0,89,71,54,29.60,0.00,13,1,13,0.00
2013-8-27,70.5,60.5,55.6,58.4,54.5,51.3,95,81,59,29.62,29.50,11,1,11,0.13
2013-8-28,69.0,60.5,56.0,61.5,57.8,54.8,97,91,77,29.60,29.51,7,0,7,0.04
2013-8-29,69.0,61.3,56.2,67.8,60.4,54.5,99,97,92,29.64,29.52,17,1,17,0.37
2013-8-30,72.5,62.2,55.9,60.9,57.3,53.4,98,85,64,29.85,29.64,17,1,17,0.01
2013-8-31,73.3,62.2,53.3,59.5,56.0,52.1,97,81,60,29.79,29.54,12,1,12,0.00
2013-9-1,76.8,65.1,54.0,60.3,55.7,51.3,92,73,53,29.57,29.49,20,2,20,0.00
2013-9-2,74.3,62.8,56.4,61.2,55.8,52.2,87,78,57,29.63,29.53,9,1,14,0.00
2013-9-3,69.8,60.1,54.4,64.4,56.4,51.8,97,88,70,29.73,29.63,7,0,7,0.18
2013-9-4,71.3,60.2,54.4,62.6,56.9,53.0,97,89,72,29.76,29.71,7,0,7,0.03
2013-9-5,71.3,60.3,56.7,64.2,57.4,54.0,97,90,72,29.75,29.60,10,0,10,0.16
2013-9-6,68.4,59.6,56.0,62.0,57.2,53.4,97,92,78,29.78,29.60,9,1,9,0.00
2013-9-7,69.3,61.4,56.5,61.5,57.6,55.4,96,88,75,29.78,29.73,9,1,9,0.00
2013-9-8,73.3,62.4,55.3,62.5,57.6,53.5,97,85,68,29.80,29.72,14,2,14,0.00
2013-9-9,73.2,62.3,54.7,62.4,57.7,52.9,97,86,68,29.76,29.69,8,1,8,0.00
2013-9-10,74.5,62.9,53.3,61.1,56.7,51.8,97,81,62,29.71,29.60,9,1,9,0.01
2013-9-11,85.1,71.1,57.3,61.5,57.3,53.7,89,65,40,29.65,29.60,10,1,10,0.00
2013-9-12,76.7,65.4,55.7,63.0,58.0,52.8,93,78,59,29.68,29.58,15,2,15,0.00
2013-9-13,69.7,60.6,55.6,61.4,57.1,54.1,96,89,74,29.64,29.54,16,4,16,0.00
2013-9-14,64.4,57.5,53.7,58.5,55.0,52.9,99,92,76,29.57,29.44,9,1,9,0.00
2013-9-15,60.4,56.7,52.8,59.8,56.0,51.7,99,97,95,29.47,29.35,20,2,20,0.16
2013-9-16,65.0,58.8,54.6,58.0,54.9,49.5,98,87,65,29.62,29.47,20,5,20,0.01
2013-9-17,65.7,56.0,51.4,55.1,51.7,49.2,95,86,66,29.62,29.55,23,5,23,0.00
2013-9-18,68.3,57.8,52.7,54.4,51.4,48.6,94,80,54,29.75,29.62,19,4,19,0.00
2013-9-19,71.0,59.0,50.5,52.6,49.9,48.0,92,73,48,29.73,29.44,11,1,11,0.00
2013-9-20,66.8,56.5,50.1,57.3,51.3,45.3,96,83,69,29.44,29.27,12,1,12,0.27
2013-9-21,63.2,55.8,52.0,58.2,53.0,50.0,98,91,74,29.41,29.33,11,1,11,0.01
2013-9-22,57.7,53.7,51.5,56.0,51.9,48.7,97,94,88,29.38,29.14,15,1,15,0.34
2013-9-23,58.5,51.7,47.7,53.2,49.3,45.5,98,91,72,29.64,29.38,16,1,16,0.27
2013-9-24,57.6,50.3,46.5,52.3,47.7,44.8,98,91,71,29.64,29.54,13,0,13,0.15
2013-9-25,60.6,52.0,47.1,50.8,48.0,46.2,98,87,62,29.70,29.56,16,2,16,0.12
2013-9-26,61.4,51.4,44.1,51.5,46.6,43.0,97,84,61,29.81,29.70,8,0,8,0.01
2013-9-27,54.2,51.1,48.7,52.7,48.8,45.3,97,92,81,29.78,29.49,7,0,7,0.07
2013-9-28,53.9,51.0,49.3,53.6,50.5,48.5,99,98,96,29.49,28.96,19,1,19,1.54
2013-9-29,54.8,50.5,47.7,54.0,49.7,44.0,100,97,86,29.17,28.74,21,1,32,1.27
2013-9-30,52.2,48.1,44.8,51.7,46.0,42.8,98,92,81,29.55,29.00,13,3,27,0.73
2013-10-1,56.9,47.4,43.4,49.3,45.4,41.8,98,93,63,29.77,29.55,11,0,11,0.33
2013-10-2,52.9,48.9,46.5,51.2,47.7,46.0,100,96,85,29.88,29.73,9,0,9,0.32
2013-10-3,54.2,48.1,44.0,50.6,46.0,43.3,99,93,79,30.14,29.88,8,0,8,0.01
2013-10-4,53.7,47.6,42.9,50.1,45.6,42.1,99,93,78,30.16,30.04,7,0,7,0.01
2013-10-5,60.6,52.4,48.0,51.8,48.5,46.4,95,87,68,30.05,29.83,5,0,9,0.00
2013-10-6,61.1,53.5,46.6,53.2,49.1,45.5,97,85,73,29.83,29.49,17,1,17,0.00
2013-10-7,54.7,51.2,49.1,50.6,48.3,45.5,97,90,81,29.67,29.51,28,5,28,0.21
2013-10-8,58.4,49.7,42.0,48.3,45.0,39.4,96,85,62,29.79,29.65,22,2,25,0.09
2013-10-9,56.8,47.5,40.8,49.1,43.5,38.4,96,86,73,29.83,29.64,10,1,10,0.00
2013-10-10,51.2,48.0,43.3,48.1,45.2,41.9,95,90,85,29.76,29.61,8,0,10,0.03
2013-10-11,52.4,46.8,42.7,47.4,44.3,41.4,97,91,80,29.83,29.76,8,0,8,0.03
2013-10-12,55.2,47.9,43.6,50.0,45.5,41.5,97,91,78,29.91,29.77,6,0,6,0.14
2013-10-13,57.4,47.6,42.2,48.9,43.9,39.7,97,88,60,30.06,29.91,7,0,7,0.01
2013-10-14,56.6,47.0,40.5,49.1,43.8,39.2,96,89,75,30.12,30.06,9,0,9,0.01
2013-10-15,58.2,48.8,43.8,51.4,45.9,42.6,97,90,77,30.08,29.87,7,0,7,0.01
2013-10-16,55.7,48.3,43.8,49.7,45.8,42.6,97,91,79,29.90,29.85,7,0,7,0.00
2013-10-17,55.5,47.8,43.6,51.8,45.5,42.5,97,92,75,29.97,29.89,7,0,7,0.01
2013-10-18,55.2,46.1,39.8,51.0,44.1,38.8,98,93,80,29.95,29.85,7,0,7,0.01
2013-10-19,49.5,44.9,38.1,49.2,44.3,37.1,99,97,95,29.90,29.84,6,0,6,0.01
2013-10-20,51.0,47.6,45.7,50.2,47.1,45.1,100,98,94,29.91,29.84,8,0,8,0.00
2013-10-21,50.2,47.4,45.7,50.1,47.2,45.1,100,99,98,29.87,29.80,8,0,8,0.00
2013-10-22,52.7,47.4,44.1,52.4,47.3,43.4,100,100,98,29.82,29.72,7,0,7,0.00
2013-10-23,55.5,47.7,41.5,54.2,46.6,41.2,100,96,84,29.75,29.68,6,0,6,0.01
2013-10-24,52.1,45.8,32.0,50.1,44.7,32.0,99,96,87,29.80,29.71,10,1,10,0.01
2013-10-25,53.9,49.2,46.3,51.4,47.9,45.0,99,95,86,30.02,29.80,9,0,9,0.00
2013-10-26,53.6,48.0,44.8,49.5,46.0,42.7,98,93,80,30.04,29.88,7,0,7,0.00
2013-10-27,59.2,49.6,45.0,50.2,45.6,41.2,97,87,62,29.88,29.64,15,1,15,0.02
2013-10-28,58.9,50.0,42.4,42.3,37.0,31.6,84,63,36,29.72,29.64,11,0,11,0.00
2013-10-29,54.8,45.2,39.9,46.0,38.1,32.3,89,76,61,29.71,29.66,5,0,7,0.00
2013-10-30,51.2,44.5,38.3,45.7,41.8,35.8,95,90,81,29.79,29.70,4,0,4,0.03
2013-10-31,54.5,48.5,45.9,52.1,46.9,44.5,97,94,87,29.93,29.73,12,1,12,0.03
2013-11-1,52.3,49.2,47.9,50.6,47.8,46.8,97,95,89,29.94,29.47,5,0,6,0.14
2013-11-2,49.8,46.8,41.6,49.3,45.2,39.6,98,94,84,29.57,29.04,18,3,30,0.43
2013-11-3,50.1,42.1,37.3,42.7,39.1,35.7,96,89,68,29.79,29.56,8,0,8,0.00
2013-11-4,42.9,39.5,35.0,41.0,37.3,33.7,96,92,84,29.87,29.71,8,0,8,0.00
2013-11-5,44.9,41.4,39.3,43.6,40.2,38.3,97,95,94,29.95,29.70,5,0,10,0.00
2013-11-6,49.2,44.6,40.6,48.1,43.2,39.7,99,95,90,30.00,29.64,10,0,10,0.00
2013-11-7,49.7,46.9,45.6,48.4,45.8,43.8,97,96,92,29.65,29.32,23,2,23,0.25
2013-11-8,53.2,45.8,40.4,45.8,42.3,39.1,95,88,74,29.83,29.64,25,3,25,0.00
2013-11-9,47.3,43.6,40.0,45.7,42.2,38.7,97,95,89,29.82,29.78,5,0,5,0.00
2013-11-10,47.8,45.2,43.2,42.7,41.5,39.8,96,87,78,29.86,29.80,8,0,8,0.00
2013-11-11,54.7,49.2,45.6,45.1,41.9,39.5,79,76,69,29.85,29.65,11,1,11,0.00
2013-11-12,56.2,50.7,47.8,50.5,46.9,42.9,96,87,74,30.02,29.64,13,1,13,0.01
2013-11-13,52.1,48.7,45.8,48.7,46.7,44.4,96,93,86,30.11,29.99,20,3,20,0.01
2013-11-14,49.4,45.3,41.0,47.7,43.1,39.2,96,92,82,29.99,29.74,15,2,15,0.01
2013-11-15,46.9,44.0,40.9,45.8,41.6,39.2,96,91,84,29.74,29.01,36,5,36,0.19
2013-11-16,45.1,43.2,40.3,41.4,38.4,36.6,90,83,76,29.42,29.05,17,5,24,0.00
2013-11-17,48.0,43.5,40.6,45.7,41.3,37.3,96,92,85,29.56,29.42,13,2,20,0.08
2013-11-18,45.9,44.6,42.9,45.4,43.8,41.8,98,97,95,29.57,29.21,6,0,6,0.00
2013-11-19,45.9,40.0,29.2,45.1,38.1,26.7,98,93,76,29.79,29.27,21,1,21,0.00
2013-11-20,41.9,32.3,27.5,33.5,28.2,24.4,93,85,64,30.21,29.79,8,0,8,0.00
2013-11-21,41.3,33.0,29.7,34.0,30.0,28.2,95,89,73,30.36,30.21,9,0,9,0.04
2013-11-22,45.0,36.0,30.3,36.3,31.8,28.5,95,85,67,30.35,30.13,10,0,10,0.00
2013-11-23,49.2,38.8,33.6,40.1,34.4,30.2,92,84,68,30.14,29.89,6,0,6,0.00
2013-11-24,49.6,39.1,33.4,41.6,36.0,31.6,95,89,74,29.94,29.86,7,0,7,0.00
2013-11-25,45.7,39.3,36.3,41.5,37.3,34.7,95,92,84,29.99,29.93,7,0,7,0.00
2013-11-26,43.4,38.6,34.2,41.2,36.2,32.9,96,91,82,29.95,29.78,9,0,9,0.00
2013-11-27,54.2,43.6,38.2,42.6,38.4,35.0,91,82,58,29.78,29.66,6,0,6,0.00
2013-11-28,52.4,43.6,37.9,45.6,40.7,35.6,95,90,77,29.85,29.71,2,0,4,0.00
2013-11-29,48.1,45.9,43.6,46.0,43.6,41.5,95,92,86,29.98,29.85,16,2,16,0.00
2013-11-30,46.8,45.3,43.6,46.2,44.3,42.1,98,96,94,29.98,29.72,5,0,5,0.00
2013-12-1,51.7,46.7,36.0,51.4,46.0,34.4,99,97,93,29.72,29.43,31,6,31,0.00
2013-12-2,41.4,35.7,30.2,36.8,33.1,26.3,96,90,76,29.82,29.49,17,2,21,0.00
2013-12-3,39.7,32.1,26.9,30.0,25.5,22.6,88,77,57,30.04,29.82,8,0,8,0.00
2013-12-4,37.7,30.2,25.7,26.7,22.4,16.6,88,73,45,30.06,30.01,8,0,8,0.00
2013-12-5,31.2,28.9,26.6,27.6,25.0,20.2,92,86,72,30.02,29.87,6,0,6,0.00
2013-12-6,29.6,25.7,22.1,23.9,16.7,9.2,87,69,54,29.99,29.87,13,1,13,0.00
2013-12-7,32.0,23.8,20.3,17.6,11.2,5.1,84,60,39,30.10,29.98,13,1,13,0.00
2013-12-8,35.9,27.9,21.6,28.2,23.2,17.2,89,82,71,30.23,30.08,7,0,7,0.00
2013-12-9,34.4,31.2,26.9,30.5,28.0,23.8,90,88,84,30.24,30.14,4,0,4,0.02
2013-12-10,36.3,34.0,31.7,34.9,32.2,28.9,95,93,89,30.14,30.09,6,0,6,0.03
2013-12-11,39.1,35.0,32.1,35.0,32.5,29.3,95,91,81,30.10,29.83,6,0,6,0.00
2013-12-12,40.6,36.4,32.3,39.5,34.8,30.5,96,94,91,29.84,29.66,5,0,7,0.04
2013-12-13,46.7,43.5,39.9,46.4,42.9,38.7,99,98,96,30.10,29.80,4,0,4,0.03
2013-12-14,47.2,45.4,44.0,46.9,45.1,43.7,99,99,99,30.10,29.97,6,0,6,0.05
2013-12-15,51.7,46.6,42.5,51.6,46.2,40.9,100,98,95,30.12,29.98,20,2,20,0.11
2013-12-16,48.1,41.9,38.1,44.4,40.1,36.8,96,93,84,30.17,29.96,11,1,11,0.01
2013-12-17,46.7,42.6,37.7,46.3,42.0,36.7,99,98,96,29.95,29.77,24,2,24,0.04
2013-12-18,45.1,38.9,31.4,44.8,36.0,28.8,99,89,76,29.93,29.72,20,3,20,0.02
2013-12-19,36.0,32.4,30.0,31.1,29.1,27.4,93,87,76,30.05,29.86,5,0,5,0.01
2013-12-20,37.5,34.7,32.6,37.0,33.5,30.0,98,95,90,29.86,29.39,7,0,7,0.39
2013-12-21,41.4,39.8,37.4,41.1,39.5,36.9,99,99,98,29.84,29.55,5,0,5,0.17
2013-12-22,45.7,43.7,41.3,45.6,43.5,41.0,100,99,99,29.96,29.83,4,0,4,0.20
2013-12-23,50.0,45.8,41.7,50.0,44.5,39.3,100,95,88,30.18,29.77,27,5,29,0.29
2013-12-24,44.0,39.4,33.9,40.9,37.0,32.1,95,91,80,30.28,30.18,12,1,12,0.00
2013-12-25,42.9,39.4,34.8,41.7,37.8,33.5,97,94,89,30.23,30.07,2,0,3,0.01
2013-12-26,45.8,40.5,35.3,43.0,38.2,33.5,95,92,79,30.08,29.89,4,0,4,0.00
2013-12-27,47.5,42.9,35.7,46.2,41.3,33.8,96,94,90,30.05,29.76,23,4,23,0.19
2013-12-28,45.4,41.5,38.0,42.6,38.3,34.8,91,88,84,30.22,30.04,6,0,8,0.00
2013-12-29,45.7,42.1,37.1,41.3,37.6,33.6,87,84,80,30.18,29.99,11,1,11,0.00
2013-12-30,45.5,43.3,41.9,37.7,36.1,34.1,80,76,70,30.00,29.79,12,0,12,0.01
2013-12-31,48.2,44.8,43.4,35.1,32.0,26.1,70,61,49,30.07,29.84,6,0,8,0.06
2014-1-1,45.5,44.5,43.6,26.6,21.9,15.7,50,41,32,30.09,29.92,4,0,5,0.05
2014-1-2,47.8,44.8,42.2,22.0,10.0,-0.1,44,25,15,29.93,29.58,28,2,28,0.70